createdAt,value
2023-01-25T00:00:53.628Z,33.33
2023-01-25T00:03:21.661Z,32.58
2023-01-25T00:05:49.674Z,34.77
2023-01-25T00:08:17.782Z,31.90
2023-01-25T00:10:45.742Z,30.75
2023-01-25T00:13:13.742Z,33.22
2023-01-25T00:15:41.742Z,35.15
2023-01-25T00:18:11.175Z,32.60
2023-01-25T00:20:39.171Z,32.87
2023-01-25T00:23:07.136Z,33.30
2023-01-25T00:25:35.124Z,33.78
2023-01-25T00:28:03.084Z,34.13
2023-01-25T00:30:31.015Z,32.45
2023-01-25T00:33:03.629Z,33.83
2023-01-25T00:35:33.504Z,32.38
2023-01-25T00:38:07.637Z,35.07
2023-01-25T00:40:35.703Z,34.15
2023-01-25T00:43:03.666Z,31.98
2023-01-25T00:45:31.667Z,32.30
2023-01-25T00:47:59.663Z,32.65
2023-01-25T00:50:27.610Z,33.20
2023-01-25T00:52:57.032Z,32.22
2023-01-25T00:55:25.032Z,33.33
2023-01-25T00:57:53.018Z,33.47
2023-01-25T01:00:21.018Z,32.92
2023-01-25T01:02:49.161Z,32.50
2023-01-25T01:05:17.256Z,33.05
2023-01-25T01:07:45.244Z,32.40
2023-01-25T01:10:14.613Z,33.10
2023-01-25T01:12:42.543Z,34.13
2023-01-25T01:15:11.225Z,33.60
2023-01-25T01:17:39.374Z,32.80
2023-01-25T01:20:07.943Z,32.75
2023-01-25T01:22:35.845Z,31.00
2023-01-25T01:25:03.798Z,33.38
2023-01-25T01:27:33.138Z,34.22
2023-01-25T01:30:01.108Z,33.63
2023-01-25T01:32:29.151Z,32.42
2023-01-25T01:34:57.154Z,34.42
2023-01-25T01:37:25.113Z,32.45
2023-01-25T01:39:53.525Z,34.03
2023-01-25T01:42:21.542Z,33.25
2023-01-25T01:44:53.004Z,35.17
2023-01-25T01:47:26.647Z,33.85
2023-01-25T01:49:57.802Z,34.25
2023-01-25T01:52:30.929Z,33.80
2023-01-25T01:55:03.110Z,32.70
2023-01-25T01:57:35.779Z,33.90
2023-01-25T02:00:09.664Z,33.60
2023-01-25T02:02:37.617Z,33.80
2023-01-25T02:05:10.358Z,34.97
2023-01-25T02:07:40.393Z,33.60
2023-01-25T02:10:11.451Z,34.40
2023-01-25T02:12:40.346Z,34.67
2023-01-25T02:15:11.615Z,33.97
2023-01-25T02:17:41.677Z,32.88
2023-01-25T02:20:20.366Z,34.00
2023-01-25T02:22:55.790Z,33.90
2023-01-25T02:25:25.147Z,33.67
2023-01-25T02:27:57.371Z,34.17
2023-01-25T02:30:25.326Z,32.72
2023-01-25T02:32:53.348Z,33.95
2023-01-25T02:35:22.637Z,34.05
2023-01-25T02:37:51.293Z,33.90
2023-01-25T02:40:20.015Z,33.90
2023-01-25T02:42:49.314Z,35.17
2023-01-25T02:45:20.105Z,34.78
2023-01-25T02:47:48.679Z,34.78
2023-01-25T02:50:17.343Z,34.95
2023-01-25T02:52:45.318Z,33.83
2023-01-25T02:55:13.310Z,35.83
2023-01-25T02:57:41.300Z,33.70
2023-01-25T03:00:13.036Z,34.72
2023-01-25T03:02:41.048Z,36.03
2023-01-25T03:05:10.149Z,34.50
2023-01-25T03:07:38.418Z,34.55
2023-01-25T03:10:07.008Z,34.45
2023-01-25T03:12:35.042Z,34.73
2023-01-25T03:15:03.009Z,34.38
2023-01-25T03:17:32.319Z,34.30
2023-01-25T03:20:00.254Z,32.38
2023-01-25T03:22:28.251Z,33.10
2023-01-25T03:24:57.296Z,32.70
2023-01-25T03:27:25.384Z,33.60
2023-01-25T03:29:53.321Z,32.58
2023-01-25T03:32:21.347Z,35.70
2023-01-25T03:34:50.771Z,34.42
2023-01-25T03:37:18.824Z,33.17
2023-01-25T03:39:46.848Z,33.47
2023-01-25T03:42:15.274Z,33.00
2023-01-25T03:44:43.219Z,35.20
2023-01-25T03:47:11.303Z,34.88
2023-01-25T03:49:39.319Z,32.10
2023-01-25T03:52:08.912Z,34.40
2023-01-25T03:54:36.842Z,33.33
2023-01-25T03:57:04.867Z,33.63
2023-01-25T03:59:32.782Z,34.05
2023-01-25T04:02:00.781Z,33.33
2023-01-25T04:04:28.781Z,34.67
2023-01-25T04:06:56.799Z,34.30
2023-01-25T04:09:26.090Z,32.55
2023-01-25T04:11:54.015Z,33.55
2023-01-25T04:14:35.066Z,33.42
2023-01-25T04:17:10.940Z,34.30
2023-01-25T04:19:38.936Z,32.90
2023-01-25T04:22:07.124Z,32.35
2023-01-25T04:24:36.429Z,33.90
2023-01-25T04:27:04.470Z,32.85
2023-01-25T04:29:41.085Z,32.88
2023-01-25T04:32:09.970Z,33.95
2023-01-25T04:34:38.230Z,33.03
2023-01-25T04:37:06.152Z,32.85
2023-01-25T04:39:34.117Z,32.78
2023-01-25T04:42:03.449Z,32.40
2023-01-25T04:44:31.441Z,32.25
2023-01-25T04:46:59.404Z,33.67
2023-01-25T04:49:27.370Z,31.90
2023-01-25T04:51:55.300Z,33.15
2023-01-25T04:54:23.259Z,34.10
2023-01-25T04:56:51.201Z,33.95
2023-01-25T04:59:20.536Z,32.13
2023-01-25T05:01:48.553Z,32.58
2023-01-25T05:04:16.537Z,34.65
2023-01-25T05:06:44.485Z,34.83
2023-01-25T05:09:12.461Z,34.58
2023-01-25T05:11:40.371Z,34.50
2023-01-25T05:14:08.436Z,35.55
2023-01-25T05:16:37.972Z,35.90
2023-01-25T05:19:06.005Z,34.95
2023-01-25T05:21:51.566Z,34.33
2023-01-25T05:24:19.595Z,35.50
2023-01-25T05:27:03.784Z,36.13
2023-01-25T05:29:35.797Z,36.00
2023-01-25T05:32:07.699Z,34.85
2023-01-25T05:34:36.592Z,37.00
2023-01-25T05:37:05.734Z,35.40
2023-01-25T05:39:34.026Z,35.20
2023-01-25T05:42:02.160Z,37.03
2023-01-25T05:44:30.451Z,35.58
2023-01-25T05:46:58.390Z,36.92
2023-01-25T05:49:27.729Z,36.42
2023-01-25T05:51:55.645Z,35.42
2023-01-25T05:54:23.635Z,35.95
2023-01-25T05:56:51.804Z,37.50
2023-01-25T05:59:19.929Z,35.80
2023-01-25T06:01:47.997Z,38.55
2023-01-25T06:04:16.921Z,37.90
2023-01-25T06:06:46.271Z,38.15
2023-01-25T06:09:14.662Z,37.50
2023-01-25T06:11:45.186Z,36.40
2023-01-25T06:14:13.558Z,37.63
2023-01-25T06:16:41.543Z,38.97
2023-01-25T06:19:09.698Z,38.58
2023-01-25T06:21:37.943Z,37.65
2023-01-25T06:24:08.357Z,39.70
2023-01-25T06:26:36.345Z,39.25
2023-01-25T06:29:06.435Z,40.60
2023-01-25T06:31:34.770Z,39.60
2023-01-25T06:34:06.234Z,40.97
2023-01-25T06:36:34.298Z,39.20
2023-01-25T06:39:02.525Z,40.15
2023-01-25T06:41:31.915Z,39.70
2023-01-25T06:43:59.885Z,40.03
2023-01-25T06:46:28.134Z,40.20
2023-01-25T06:48:56.171Z,40.28
2023-01-25T06:51:24.085Z,41.97
2023-01-25T06:53:52.098Z,40.30
2023-01-25T06:56:22.620Z,42.45
2023-01-25T06:58:51.952Z,42.72
2023-01-25T07:01:21.723Z,40.55
2023-01-25T07:03:50.509Z,41.45
2023-01-25T07:06:18.895Z,39.70
2023-01-25T07:08:47.541Z,41.92
2023-01-25T07:11:16.136Z,41.20
2023-01-25T07:13:45.627Z,42.13
2023-01-25T07:16:16.865Z,41.70
2023-01-25T07:18:45.243Z,38.30
2023-01-25T07:21:17.153Z,39.27
2023-01-25T07:23:45.553Z,40.50
2023-01-25T07:26:17.620Z,40.20
2023-01-25T07:28:45.896Z,38.85
2023-01-25T07:31:16.148Z,39.08
2023-01-25T07:33:44.742Z,39.58
2023-01-25T07:36:12.902Z,39.95
2023-01-25T07:38:41.096Z,40.42
2023-01-25T07:41:09.192Z,39.53
2023-01-25T07:43:37.214Z,39.58
2023-01-25T07:46:07.165Z,39.85
2023-01-25T07:48:36.483Z,37.75
2023-01-25T07:51:22.883Z,39.55
2023-01-25T07:53:52.336Z,38.95
2023-01-25T07:56:21.596Z,37.25
2023-01-25T07:58:49.804Z,38.97
2023-01-25T08:01:19.680Z,37.17
2023-01-25T08:03:50.314Z,38.00
2023-01-25T08:06:19.342Z,37.00
2023-01-25T08:08:49.275Z,36.78
2023-01-25T08:11:19.541Z,37.60
2023-01-25T08:13:49.606Z,38.13
2023-01-25T08:16:19.050Z,40.22
2023-01-25T08:18:50.413Z,38.28
2023-01-25T08:21:18.550Z,37.90
2023-01-25T08:23:46.724Z,40.33
2023-01-25T08:26:16.860Z,40.35
2023-01-25T08:28:44.994Z,40.00
2023-01-25T08:31:14.985Z,40.75
2023-01-25T08:33:46.048Z,41.60
2023-01-25T08:36:16.691Z,42.53
2023-01-25T08:38:44.886Z,41.22
2023-01-25T08:41:14.761Z,38.90
2023-01-25T08:43:43.208Z,38.40
2023-01-25T08:46:12.013Z,40.40
2023-01-25T08:48:40.198Z,39.67
2023-01-25T08:51:10.251Z,38.70
2023-01-25T08:53:39.553Z,41.00
2023-01-25T08:56:10.077Z,41.00
2023-01-25T08:58:39.798Z,39.50
2023-01-25T09:01:09.499Z,39.67
2023-01-25T09:03:39.113Z,39.90
2023-01-25T09:06:08.225Z,40.30
2023-01-25T09:08:38.152Z,39.20
2023-01-25T09:11:08.617Z,40.15
2023-01-25T09:13:37.029Z,39.55
2023-01-25T09:16:08.177Z,40.92
2023-01-25T09:18:38.319Z,40.15
2023-01-25T09:21:07.726Z,41.17
2023-01-25T09:23:44.404Z,40.28
2023-01-25T09:26:25.193Z,40.80
2023-01-25T09:28:55.166Z,40.65
2023-01-25T09:31:24.990Z,41.50
2023-01-25T09:33:53.889Z,40.75
2023-01-25T09:36:21.813Z,41.45
2023-01-25T09:38:49.824Z,41.53
2023-01-25T09:41:49.301Z,43.45
2023-01-25T09:44:32.171Z,41.97
2023-01-25T09:47:03.672Z,42.07
2023-01-25T09:49:43.618Z,41.08
2023-01-25T09:52:26.433Z,41.60
2023-01-25T09:54:54.528Z,41.65
2023-01-25T09:57:28.623Z,42.63
2023-01-25T09:59:57.606Z,42.88
2023-01-25T10:02:38.226Z,42.92
2023-01-25T10:05:12.530Z,41.40
2023-01-25T10:07:52.294Z,42.78
2023-01-25T10:10:22.985Z,45.72
2023-01-25T10:12:52.366Z,42.30
2023-01-25T10:15:22.567Z,43.00
2023-01-25T10:17:59.283Z,43.03
2023-01-25T10:20:34.646Z,46.25
2023-01-25T10:23:22.646Z,45.10
2023-01-25T10:25:58.978Z,47.38
2023-01-25T10:28:40.778Z,45.28
2023-01-25T10:31:17.737Z,47.45
2023-01-25T10:33:47.292Z,46.63
2023-01-25T10:36:17.057Z,46.00
2023-01-25T10:38:47.269Z,46.13
2023-01-25T10:41:21.067Z,46.85
2023-01-25T10:44:10.992Z,47.50
2023-01-25T10:46:40.891Z,47.30
2023-01-25T10:49:24.444Z,44.88
2023-01-25T10:51:52.458Z,46.00
2023-01-25T10:54:22.822Z,47.42
2023-01-25T10:56:51.952Z,45.58
2023-01-25T10:59:24.987Z,46.33
2023-01-25T11:01:53.436Z,47.83
2023-01-25T11:04:36.975Z,48.53
2023-01-25T11:07:06.438Z,48.00
2023-01-25T11:09:40.032Z,48.00
2023-01-25T11:12:19.770Z,48.80
2023-01-25T11:14:50.913Z,47.10
2023-01-25T11:17:30.210Z,47.83
2023-01-25T11:20:18.486Z,47.08
2023-01-25T11:22:54.198Z,46.35
2023-01-25T11:25:31.108Z,46.22
2023-01-25T11:28:20.161Z,46.35
2023-01-25T11:30:50.091Z,44.97
2023-01-25T11:33:21.118Z,45.13
2023-01-25T11:36:14.092Z,45.30
2023-01-25T11:38:54.436Z,46.07
2023-01-25T11:41:27.932Z,47.33
2023-01-25T11:44:19.446Z,45.00
2023-01-25T11:47:00.282Z,43.30
2023-01-25T11:49:37.563Z,46.45
2023-01-25T11:52:15.562Z,44.28
2023-01-25T11:54:53.402Z,45.80
2023-01-25T11:57:47.661Z,46.30
2023-01-25T12:00:31.102Z,45.67
2023-01-25T12:03:31.476Z,45.60
2023-01-25T12:06:07.495Z,47.25
2023-01-25T12:08:58.286Z,44.97
2023-01-25T12:11:41.790Z,44.58
2023-01-25T12:14:21.275Z,47.80
2023-01-25T12:17:03.304Z,48.83
2023-01-25T12:19:49.266Z,46.53
2023-01-25T12:22:59.096Z,46.20
2023-01-25T12:25:33.590Z,45.85
2023-01-25T12:28:12.121Z,46.40
2023-01-25T12:30:50.193Z,46.90
2023-01-25T12:33:24.706Z,47.10
2023-01-25T12:35:58.809Z,45.70
2023-01-25T12:38:35.142Z,46.92
2023-01-25T12:41:08.970Z,47.58
2023-01-25T12:43:43.115Z,48.78
2023-01-25T12:46:17.040Z,46.80
2023-01-25T12:48:49.756Z,49.80
2023-01-25T12:51:20.310Z,48.08
2023-01-25T12:53:51.853Z,49.95
2023-01-25T12:56:33.593Z,47.75
2023-01-25T12:59:09.003Z,50.43
2023-01-25T13:01:42.287Z,49.13
2023-01-25T13:04:26.875Z,50.90
2023-01-25T13:07:02.639Z,51.03
2023-01-25T13:09:40.674Z,51.30
2023-01-25T13:12:13.087Z,49.33
2023-01-25T13:14:42.359Z,52.65
2023-01-25T13:17:26.209Z,50.65
2023-01-25T13:19:54.399Z,53.42
2023-01-25T13:22:58.839Z,50.38
2023-01-25T13:25:28.614Z,49.85
2023-01-25T13:28:38.101Z,52.05
2023-01-25T13:31:06.203Z,47.72
2023-01-25T13:33:35.657Z,51.05
2023-01-25T13:36:50.986Z,51.08
2023-01-25T13:39:42.425Z,48.92
2023-01-25T13:42:22.836Z,49.33
2023-01-25T13:44:53.431Z,47.75
2023-01-25T13:47:24.634Z,50.80
2023-01-25T13:49:58.322Z,50.15
2023-01-25T13:52:28.383Z,50.70
2023-01-25T13:54:58.216Z,51.63
2023-01-25T13:57:29.147Z,50.60
2023-01-25T14:00:10.109Z,53.45
2023-01-25T14:02:40.082Z,53.05
2023-01-25T14:05:18.944Z,55.33
2023-01-25T14:07:48.679Z,53.40
2023-01-25T14:10:23.413Z,54.22
2023-01-25T14:12:54.154Z,53.20
2023-01-25T14:15:24.760Z,52.90
2023-01-25T14:18:12.223Z,54.90
2023-01-25T14:20:40.347Z,49.90
2023-01-25T14:23:25.773Z,50.08
2023-01-25T14:25:55.030Z,51.77
2023-01-25T14:28:24.409Z,49.60
2023-01-25T14:30:55.958Z,48.90
2023-01-25T14:33:27.241Z,48.42
2023-01-25T14:36:01.622Z,48.63
2023-01-25T14:38:34.790Z,48.05
2023-01-25T14:41:08.545Z,46.35
2023-01-25T14:43:43.077Z,45.85
2023-01-25T14:46:27.380Z,46.22
2023-01-25T14:49:15.826Z,44.55
2023-01-25T14:51:46.645Z,44.92
2023-01-25T14:54:18.913Z,44.78
2023-01-25T14:56:48.965Z,43.83
2023-01-25T14:59:28.362Z,43.75
2023-01-25T15:01:59.216Z,45.28
2023-01-25T15:04:27.485Z,45.65
2023-01-25T15:06:59.079Z,45.55
2023-01-25T15:09:42.329Z,44.25
2023-01-25T15:12:28.875Z,43.90
2023-01-25T15:15:00.045Z,42.13
2023-01-25T15:17:43.142Z,43.63
2023-01-25T15:20:39.258Z,42.87
2023-01-25T15:23:23.797Z,42.05
2023-01-25T15:25:53.747Z,44.55
2023-01-25T15:28:23.265Z,41.57
2023-01-25T15:30:52.943Z,43.05
2023-01-25T15:33:23.642Z,42.60
2023-01-25T15:35:54.011Z,43.53
2023-01-25T15:38:22.913Z,42.13
2023-01-25T15:40:50.954Z,39.25
2023-01-25T15:43:20.621Z,42.20
2023-01-25T15:45:52.040Z,42.85
2023-01-25T15:48:28.671Z,39.83
2023-01-25T15:50:57.589Z,41.47
2023-01-25T15:53:26.245Z,42.05
2023-01-25T15:55:58.254Z,44.50
2023-01-25T15:58:31.477Z,43.03
2023-01-25T16:01:00.205Z,43.88
2023-01-25T16:03:29.898Z,43.47
2023-01-25T16:06:00.185Z,43.80
2023-01-25T16:08:29.095Z,44.10
2023-01-25T16:10:57.412Z,45.03
2023-01-25T16:13:25.674Z,45.13
2023-01-25T16:15:56.827Z,43.97
2023-01-25T16:18:24.796Z,44.45
2023-01-25T16:20:54.052Z,43.72
2023-01-25T16:23:22.055Z,43.70
2023-01-25T16:25:50.328Z,42.45
2023-01-25T16:28:18.658Z,44.22
2023-01-25T16:30:46.696Z,44.57
2023-01-25T16:33:14.720Z,44.03
2023-01-25T16:35:42.675Z,43.38
2023-01-25T16:38:13.555Z,42.80
2023-01-25T16:40:41.663Z,43.42
2023-01-25T16:43:09.657Z,41.20
2023-01-25T16:45:37.873Z,42.90
2023-01-25T16:48:06.438Z,41.37
2023-01-25T16:50:35.438Z,43.15
2023-01-25T16:53:03.414Z,40.25
2023-01-25T16:55:32.751Z,42.63
2023-01-25T16:58:00.716Z,41.83
2023-01-25T17:00:28.695Z,43.85
2023-01-25T17:02:59.417Z,44.05
2023-01-25T17:05:33.667Z,45.08
2023-01-25T17:08:01.771Z,47.13
2023-01-25T17:10:33.107Z,47.53
2023-01-25T17:13:02.597Z,46.80
2023-01-25T17:15:30.813Z,45.80
2023-01-25T17:17:58.783Z,47.40
2023-01-25T17:20:26.709Z,48.45
2023-01-25T17:22:54.658Z,46.10
2023-01-25T17:25:23.079Z,48.90
2023-01-25T17:27:50.994Z,50.13
2023-01-25T17:30:20.641Z,48.08
2023-01-25T17:32:48.561Z,50.30
2023-01-25T17:35:16.674Z,46.77
2023-01-25T17:37:44.625Z,50.97
2023-01-25T17:40:13.659Z,49.90
2023-01-25T17:42:41.645Z,51.72
2023-01-25T17:45:10.414Z,51.33
2023-01-25T17:47:40.005Z,52.90
2023-01-25T17:50:09.948Z,49.83
2023-01-25T17:52:38.209Z,52.15
2023-01-25T17:55:07.177Z,53.08
2023-01-25T17:57:37.133Z,53.85
2023-01-25T18:00:06.982Z,53.05
2023-01-25T18:02:35.035Z,53.20
2023-01-25T18:05:04.470Z,54.57
2023-01-25T18:07:32.398Z,56.25
2023-01-25T18:10:00.362Z,59.85
2023-01-25T18:12:28.542Z,56.78
2023-01-25T18:14:56.528Z,57.95
2023-01-25T18:17:24.515Z,56.23
2023-01-25T18:19:52.894Z,56.58
2023-01-25T18:22:23.361Z,60.70
2023-01-25T18:24:52.347Z,58.20
2023-01-25T18:27:22.315Z,58.70
2023-01-25T18:29:55.943Z,57.30
2023-01-25T18:32:24.171Z,58.90
2023-01-25T18:34:52.362Z,57.22
2023-01-25T18:37:23.356Z,60.10
2023-01-25T18:39:52.828Z,59.88
2023-01-25T18:42:21.942Z,60.55
2023-01-25T18:44:50.096Z,58.28
2023-01-25T18:47:19.667Z,58.93
2023-01-25T18:49:47.884Z,59.88
2023-01-25T18:52:16.679Z,60.97
2023-01-25T18:54:46.233Z,59.10
2023-01-25T18:57:15.364Z,60.72
2023-01-25T18:59:43.833Z,58.85
2023-01-25T19:02:13.441Z,59.70
2023-01-25T19:04:41.686Z,58.40
2023-01-25T19:07:09.943Z,59.42
2023-01-25T19:09:37.985Z,55.97
2023-01-25T19:12:07.891Z,56.17
2023-01-25T19:14:35.903Z,59.50
2023-01-25T19:17:03.941Z,58.23
2023-01-25T19:19:33.647Z,56.70
2023-01-25T19:22:02.104Z,57.20
2023-01-25T19:24:30.105Z,58.92
2023-01-25T19:26:58.106Z,57.25
2023-01-25T19:29:27.551Z,57.90
2023-01-25T19:31:55.617Z,59.80
2023-01-25T19:34:23.580Z,58.60
2023-01-25T19:36:53.698Z,58.70
2023-01-25T19:39:21.777Z,57.90
2023-01-25T19:41:53.025Z,60.03
2023-01-25T19:44:21.229Z,63.20
2023-01-25T19:46:50.612Z,61.15
2023-01-25T19:49:18.766Z,60.70
2023-01-25T19:51:52.912Z,61.17
2023-01-25T19:54:21.845Z,59.27
2023-01-25T19:56:50.712Z,60.30
2023-01-25T19:59:20.540Z,59.20
2023-01-25T20:01:50.274Z,60.85
2023-01-25T20:04:20.735Z,61.25
2023-01-25T20:06:49.450Z,61.30
2023-01-25T20:09:19.936Z,63.83
2023-01-25T20:11:48.245Z,63.80
2023-01-25T20:14:16.584Z,60.67
2023-01-25T20:16:44.537Z,65.68
2023-01-25T20:19:14.056Z,70.78
2023-01-25T20:21:42.133Z,68.28
2023-01-25T20:24:11.028Z,69.97
2023-01-25T20:26:42.778Z,69.88
2023-01-25T20:29:12.121Z,70.20
2023-01-25T20:31:41.402Z,68.13
2023-01-25T20:34:13.916Z,68.85
2023-01-25T20:36:43.099Z,66.97
2023-01-25T20:39:13.383Z,69.30
2023-01-25T20:41:41.421Z,65.50
2023-01-25T20:44:11.247Z,68.82
2023-01-25T20:46:40.543Z,64.07
2023-01-25T20:49:10.206Z,66.28
2023-01-25T20:51:39.924Z,69.03
2023-01-25T20:54:07.869Z,67.53
2023-01-25T20:56:36.069Z,67.88
2023-01-25T20:59:04.348Z,69.77
2023-01-25T21:01:37.333Z,66.20
2023-01-25T21:04:06.676Z,66.82
2023-01-25T21:06:35.561Z,66.13
2023-01-25T21:09:05.493Z,68.32
2023-01-25T21:11:34.597Z,68.15
2023-01-25T21:14:02.733Z,66.03
2023-01-25T21:16:30.830Z,64.30
2023-01-25T21:19:00.130Z,64.20
2023-01-25T21:21:29.442Z,63.92
2023-01-25T21:24:00.040Z,61.63
2023-01-25T21:26:31.410Z,63.05
2023-01-25T21:29:00.856Z,60.80
2023-01-25T21:31:32.682Z,62.00
2023-01-25T21:34:01.209Z,60.38
2023-01-25T21:36:29.837Z,59.15
2023-01-25T21:38:58.271Z,58.17
2023-01-25T21:41:29.369Z,56.65
2023-01-25T21:44:17.585Z,57.30
2023-01-25T21:47:00.736Z,55.45
2023-01-25T21:49:51.584Z,53.73
2023-01-25T21:52:19.585Z,52.95
2023-01-25T21:54:47.552Z,50.63
2023-01-25T21:57:15.472Z,52.13
2023-01-25T21:59:44.808Z,53.17
2023-01-25T22:02:15.068Z,54.60
2023-01-25T22:04:43.125Z,52.72
2023-01-25T22:07:11.521Z,50.97
2023-01-25T22:09:39.429Z,54.03
2023-01-25T22:12:07.482Z,53.05
2023-01-25T22:14:36.550Z,50.03
2023-01-25T22:17:05.866Z,48.38
2023-01-25T22:19:34.208Z,48.72
2023-01-25T22:22:02.171Z,51.95
2023-01-25T22:24:30.071Z,49.90
2023-01-25T22:27:05.217Z,48.45
2023-01-25T22:29:34.115Z,47.47
2023-01-25T22:32:02.289Z,50.83
2023-01-25T22:34:31.789Z,45.83
2023-01-25T22:36:59.748Z,46.80
2023-01-25T22:39:27.762Z,47.72
2023-01-25T22:41:56.375Z,46.33
2023-01-25T22:44:24.329Z,46.07
2023-01-25T22:46:53.780Z,46.83
2023-01-25T22:49:21.846Z,48.70
2023-01-25T22:51:51.191Z,46.35
2023-01-25T22:54:19.238Z,46.85
2023-01-25T22:56:47.178Z,46.90
2023-01-25T22:59:18.870Z,45.90
2023-01-25T23:01:47.251Z,45.70
2023-01-25T23:04:15.250Z,48.13
2023-01-25T23:06:43.291Z,44.92
2023-01-25T23:09:12.642Z,46.05
2023-01-25T23:11:40.683Z,48.67
2023-01-25T23:14:27.688Z,46.05
2023-01-25T23:17:15.832Z,44.47
2023-01-25T23:19:42.801Z,45.88
2023-01-25T23:22:10.725Z,44.15
2023-01-25T23:24:40.067Z,44.05
2023-01-25T23:27:08.075Z,42.70
2023-01-25T23:29:37.120Z,43.23
2023-01-25T23:32:05.153Z,43.00
2023-01-25T23:34:34.949Z,44.05
2023-01-25T23:37:03.081Z,44.05
2023-01-25T23:39:31.019Z,41.83
2023-01-25T23:42:00.365Z,41.83
2023-01-25T23:44:28.306Z,42.10
2023-01-25T23:46:56.411Z,44.08
2023-01-25T23:49:24.351Z,42.42
2023-01-25T23:51:52.270Z,39.35
2023-01-25T23:54:20.194Z,41.03
2023-01-25T23:56:48.186Z,40.20
2023-01-25T23:59:17.453Z,41.63
